Time;durP1;ratioP1;P1;durP2;ratioP2;P2;SDS_P1;SDS_P2;PMS_P1;PMS_P2;Temp;Humidity;BMP_temperature;BMP_pressure;BME280_temperature;BME280_humidity;BME280_pressure;Samples;Min_cycle;Max_cycle;Signal;HPM_P1;HPM_P2
2023/09/03 00:00:14;;;;;;;;;1.50;1.50;;;;;;;;5032407;28;45928;-74
2023/09/03 00:02:53;;;;;;;;;2.50;2.50;;;;;;;;5034403;28;45512;-71
2023/09/03 00:05:31;;;;;;;;;3.00;1.75;;;;;;;;5051190;28;45377;-72
2023/09/03 00:08:06;;;;;;;;;1.00;1.00;;;;;;;;5062442;28;45732;-73
2023/09/03 00:10:35;;;;;;;;;2.00;2.00;;;;;;;;5068048;28;45740;-70
2023/09/03 00:13:04;;;;;;;;;2.00;2.00;;;;;;;;5063102;28;45567;-72
2023/09/03 00:15:29;;;;;;;;;5.00;2.75;;;;;;;;5067607;28;45600;-71
2023/09/03 00:17:58;;;;;;;;;4.00;3.00;;;;;;;;5073661;28;45638;-72
2023/09/03 00:20:29;;;;;;;;;2.50;2.50;;;;;;;;5060944;28;45723;-71
2023/09/03 00:22:57;;;;;;;;;3.00;3.00;;;;;;;;5070944;28;45428;-71
2023/09/03 00:25:22;;;;;;;;;4.75;3.00;;;;;;;;5058139;28;45558;-71
2023/09/03 00:27:56;;;;;;;;;3.00;3.00;;;;;;;;5066135;28;45340;-70
2023/09/03 00:30:21;;;;;;;;;5.00;3.75;;;;;;;;5059625;28;46022;-70
2023/09/03 00:32:47;;;;;;;;;2.00;2.00;;;;;;;;5056281;28;46378;-70
2023/09/03 00:35:12;;;;;;;;;2.75;2.75;;;;;;;;5066695;28;45771;-71
2023/09/03 00:37:44;;;;;;;;;3.00;3.00;;;;;;;;5066156;28;46354;-69
2023/09/03 00:40:30;;;;;;;;;3.00;3.00;;;;;;;;5069695;28;45391;-71
2023/09/03 00:42:55;;;;;;;;;3.00;3.00;;;;;;;;5055782;28;46201;-70
2023/09/03 00:45:45;;;;;;;;;2.75;2.25;;;;;;;;5067493;28;45300;-72
2023/09/03 00:48:17;;;;;;;;;1.75;1.75;;;;;;;;5065441;28;45661;-71
2023/09/03 00:50:51;;;;;;;;;3.25;2.75;;;;;;;;5067341;27;45424;-71
2023/09/03 00:53:41;;;;;;;;;2.75;2.00;;;;;;;;5064882;28;45422;-71
2023/09/03 00:56:10;;;;;;;;;3.00;2.50;;;;;;;;5053078;28;45877;-71
2023/09/03 00:58:42;;;;;;;;;1.75;1.75;;;;;;;;5058848;28;45614;-72
2023/09/03 01:01:10;;;;;;;;;1.25;1.25;;;;;;;;5063695;28;45859;-72
2023/09/03 01:03:38;;;;;;;;;2.50;1.25;;;;;;;;5057043;28;47004;-71
2023/09/03 01:06:04;;;;;;;;;3.75;2.50;;;;;;;;5058647;28;45479;-71
2023/09/03 01:08:48;;;;;;;;;5.50;2.50;;;;;;;;5031615;28;45437;-73
2023/09/03 01:11:31;;;;;;;;;2.75;2.75;;;;;;;;4999940;28;45778;-71
2023/09/03 01:14:32;;;;;;;;;2.50;2.50;;;;;;;;5018430;28;46150;-71
2023/09/03 01:17:18;;;;;;;;;3.50;3.50;;;;;;;;5028417;28;45585;-72
2023/09/03 01:20:04;;;;;;;;;2.50;2.50;;;;;;;;5056014;28;45658;-71
2023/09/03 01:22:48;;;;;;;;;2.50;2.50;;;;;;;;5056228;28;45592;-71
2023/09/03 01:25:35;;;;;;;;;1.00;1.00;;;;;;;;5067726;28;47184;-72
2023/09/03 01:28:13;;;;;;;;;3.25;3.25;;;;;;;;5057643;28;45602;-70
2023/09/03 01:30:38;;;;;;;;;4.50;4.50;;;;;;;;5064577;28;45476;-69
2023/09/03 01:33:04;;;;;;;;;2.50;2.25;;;;;;;;5053273;28;45485;-70
2023/09/03 01:35:36;;;;;;;;;2.00;2.00;;;;;;;;5058210;28;45754;-70
2023/09/03 01:38:01;;;;;;;;;3.00;3.00;;;;;;;;5059483;27;45387;-70
2023/09/03 01:40:26;;;;;;;;;3.00;3.00;;;;;;;;5057519;28;45278;-71
2023/09/03 01:42:54;;;;;;;;;4.00;3.00;;;;;;;;5063683;28;45234;-70
2023/09/03 01:45:19;;;;;;;;;2.25;2.25;;;;;;;;5058987;28;45689;-71
2023/09/03 01:47:48;;;;;;;;;5.00;3.25;;;;;;;;5067883;27;45937;-70
2023/09/03 01:50:32;;;;;;;;;3.00;3.00;;;;;;;;5059631;28;45486;-70
2023/09/03 01:53:02;;;;;;;;;3.50;3.25;;;;;;;;5060761;28;45725;-70
2023/09/03 01:55:30;;;;;;;;;3.00;3.00;;;;;;;;5067577;28;45617;-70
2023/09/03 01:57:59;;;;;;;;;4.00;3.25;;;;;;;;5060755;28;45831;-71
2023/09/03 02:00:24;;;;;;;;;3.00;3.00;;;;;;;;5062516;28;45663;-69
2023/09/03 02:02:51;;;;;;;;;2.75;2.75;;;;;;;;5057198;28;45664;-71
2023/09/03 02:05:17;;;;;;;;;3.25;3.25;;;;;;;;5054361;28;47131;-70
2023/09/03 02:07:42;;;;;;;;;5.00;4.00;;;;;;;;5051203;28;45678;-69
2023/09/03 02:10:08;;;;;;;;;3.25;3.25;;;;;;;;5055047;28;45848;-69
2023/09/03 02:12:33;;;;;;;;;2.25;2.25;;;;;;;;5055331;28;45555;-69
2023/09/03 02:14:58;;;;;;;;;5.75;4.25;;;;;;;;5061388;28;45437;-70
2023/09/03 02:17:24;;;;;;;;;5.00;2.75;;;;;;;;5056585;28;46747;-70
2023/09/03 02:19:51;;;;;;;;;3.00;3.00;;;;;;;;5059125;27;45576;-70
2023/09/03 02:22:16;;;;;;;;;7.25;6.00;;;;;;;;5052211;28;46794;-70
2023/09/03 02:24:41;;;;;;;;;3.00;3.00;;;;;;;;5055076;28;45888;-72
2023/09/03 02:27:07;;;;;;;;;1.25;1.25;;;;;;;;5057833;28;45556;-70
2023/09/03 02:29:32;;;;;;;;;3.00;3.00;;;;;;;;5053672;28;45416;-70
2023/09/03 02:31:57;;;;;;;;;3.00;2.00;;;;;;;;5050975;28;45544;-70
2023/09/03 02:34:23;;;;;;;;;4.25;3.25;;;;;;;;5059176;28;45408;-70
2023/09/03 02:36:48;;;;;;;;;2.75;2.50;;;;;;;;5053509;28;45418;-70
2023/09/03 02:39:14;;;;;;;;;2.75;2.75;;;;;;;;5066539;28;45804;-68
2023/09/03 02:41:39;;;;;;;;;4.00;2.00;;;;;;;;5060059;27;45660;-70
2023/09/03 02:44:06;;;;;;;;;2.00;2.00;;;;;;;;5063559;27;45682;-70
2023/09/03 02:46:32;;;;;;;;;8.25;2.50;;;;;;;;5066995;28;45920;-69
2023/09/03 02:48:57;;;;;;;;;4.25;2.50;;;;;;;;5062123;28;45329;-70
2023/09/03 02:51:22;;;;;;;;;1.50;1.50;;;;;;;;5059614;28;45606;-70
2023/09/03 02:53:51;;;;;;;;;2.75;2.25;;;;;;;;5064101;28;45830;-70
2023/09/03 02:56:16;;;;;;;;;3.00;3.00;;;;;;;;5058750;28;45511;-68
2023/09/03 02:58:42;;;;;;;;;2.00;2.00;;;;;;;;5061970;28;45396;-70
2023/09/03 03:01:08;;;;;;;;;3.50;3.00;;;;;;;;5055368;28;45883;-70
2023/09/03 03:03:33;;;;;;;;;3.00;3.00;;;;;;;;5067937;28;45462;-69
2023/09/03 03:05:59;;;;;;;;;4.25;4.00;;;;;;;;5056594;28;45895;-69
2023/09/03 03:08:24;;;;;;;;;2.00;2.00;;;;;;;;5068754;27;45789;-69
2023/09/03 03:10:50;;;;;;;;;3.50;2.50;;;;;;;;5068431;28;45664;-71
2023/09/03 03:13:15;;;;;;;;;3.75;3.00;;;;;;;;5058900;28;45645;-69
2023/09/03 03:15:41;;;;;;;;;5.00;4.00;;;;;;;;5060401;28;45787;-70
2023/09/03 03:18:06;;;;;;;;;3.00;3.00;;;;;;;;5069996;28;45333;-71
2023/09/03 03:20:31;;;;;;;;;3.25;3.25;;;;;;;;5063688;28;45912;-70
2023/09/03 03:22:56;;;;;;;;;2.25;2.25;;;;;;;;5060021;28;45828;-70
2023/09/03 03:25:22;;;;;;;;;1.00;1.00;;;;;;;;5054611;28;45835;-70
2023/09/03 03:27:47;;;;;;;;;3.25;3.25;;;;;;;;5064207;28;45415;-71
2023/09/03 03:30:12;;;;;;;;;2.50;2.25;;;;;;;;5068060;28;46589;-70
2023/09/03 03:32:37;;;;;;;;;4.00;4.00;;;;;;;;5063207;28;46098;-70
2023/09/03 03:35:05;;;;;;;;;3.25;3.25;;;;;;;;5064279;28;45814;-69
2023/09/03 03:37:31;;;;;;;;;3.00;2.25;;;;;;;;5058810;28;45776;-71
2023/09/03 03:39:56;;;;;;;;;5.75;3.00;;;;;;;;5065205;28;45357;-71
2023/09/03 03:42:21;;;;;;;;;2.75;2.00;;;;;;;;5068292;28;45417;-71
2023/09/03 03:44:47;;;;;;;;;2.50;2.50;;;;;;;;5058807;28;45660;-69
2023/09/03 03:47:12;;;;;;;;;2.25;2.25;;;;;;;;5059215;28;45437;-70
2023/09/03 03:49:37;;;;;;;;;2.75;2.75;;;;;;;;5064431;28;45679;-68
2023/09/03 03:52:03;;;;;;;;;3.25;2.25;;;;;;;;5062039;28;45719;-71
2023/09/03 03:54:30;;;;;;;;;4.00;3.00;;;;;;;;5066551;28;45947;-71
2023/09/03 03:56:55;;;;;;;;;6.00;4.75;;;;;;;;5061675;27;45630;-69
2023/09/03 03:59:20;;;;;;;;;5.00;4.00;;;;;;;;5062817;28;45392;-70
2023/09/03 04:01:46;;;;;;;;;3.25;3.00;;;;;;;;5061761;28;45508;-70
2023/09/03 04:04:11;;;;;;;;;4.00;4.00;;;;;;;;5054842;27;45473;-70
2023/09/03 04:06:36;;;;;;;;;4.50;4.50;;;;;;;;5061770;28;45361;-69
2023/09/03 04:09:02;;;;;;;;;4.00;4.00;;;;;;;;5066287;28;45805;-69
2023/09/03 04:11:27;;;;;;;;;7.00;3.75;;;;;;;;5056962;28;46637;-70
2023/09/03 04:13:53;;;;;;;;;4.00;4.00;;;;;;;;5061893;28;45950;-71
2023/09/03 04:16:20;;;;;;;;;5.25;5.25;;;;;;;;5058088;28;45667;-70
2023/09/03 04:18:45;;;;;;;;;4.25;4.25;;;;;;;;5054931;27;45834;-70
2023/09/03 04:21:11;;;;;;;;;4.00;4.00;;;;;;;;5064481;28;45369;-71
2023/09/03 04:23:36;;;;;;;;;4.00;4.00;;;;;;;;5057802;28;45435;-70
2023/09/03 04:26:02;;;;;;;;;6.00;5.25;;;;;;;;5054533;28;45553;-69
2023/09/03 04:28:27;;;;;;;;;4.00;4.00;;;;;;;;5055303;28;45740;-71
2023/09/03 04:30:54;;;;;;;;;4.00;3.75;;;;;;;;5056577;28;45479;-70
2023/09/03 04:33:19;;;;;;;;;4.00;4.00;;;;;;;;5057866;28;45471;-70
2023/09/03 04:35:45;;;;;;;;;7.25;6.25;;;;;;;;5062882;27;45525;-70
2023/09/03 04:38:10;;;;;;;;;5.50;5.25;;;;;;;;5067437;28;47286;-69
2023/09/03 04:40:36;;;;;;;;;4.50;3.50;;;;;;;;5065018;28;45893;-69
2023/09/03 04:43:01;;;;;;;;;4.00;4.00;;;;;;;;5054438;28;45553;-69
2023/09/03 04:45:27;;;;;;;;;4.00;4.00;;;;;;;;5060016;28;45535;-70
2023/09/03 04:47:52;;;;;;;;;6.00;6.00;;;;;;;;5066140;28;46352;-68
2023/09/03 04:50:17;;;;;;;;;7.25;4.75;;;;;;;;5056343;28;48210;-69
2023/09/03 04:52:43;;;;;;;;;8.00;6.75;;;;;;;;5058855;28;45648;-71
2023/09/03 04:55:09;;;;;;;;;6.50;6.00;;;;;;;;5057542;28;45476;-70
2023/09/03 04:57:34;;;;;;;;;6.00;5.00;;;;;;;;5070155;27;45608;-70
2023/09/03 04:59:59;;;;;;;;;5.00;4.75;;;;;;;;5061411;28;45395;-69
2023/09/03 05:02:25;;;;;;;;;5.50;4.50;;;;;;;;5067261;27;45486;-69
2023/09/03 05:04:50;;;;;;;;;5.00;5.00;;;;;;;;5053157;28;45778;-68
2023/09/03 05:07:15;;;;;;;;;5.50;5.50;;;;;;;;5052083;28;45894;-71
2023/09/03 05:09:40;;;;;;;;;5.00;5.00;;;;;;;;5055741;28;45805;-70
2023/09/03 05:12:06;;;;;;;;;6.25;6.25;;;;;;;;5061365;28;45621;-69
2023/09/03 05:14:31;;;;;;;;;5.50;5.50;;;;;;;;5060417;28;45766;-70
2023/09/03 05:16:56;;;;;;;;;5.75;4.25;;;;;;;;5055038;28;45693;-70
2023/09/03 05:19:22;;;;;;;;;6.50;6.50;;;;;;;;5062841;28;46596;-70
2023/09/03 05:21:47;;;;;;;;;8.00;6.00;;;;;;;;5068762;28;45794;-70
2023/09/03 05:24:12;;;;;;;;;8.75;7.25;;;;;;;;5063896;27;45769;-70
2023/09/03 05:26:38;;;;;;;;;5.50;4.25;;;;;;;;5067855;28;45865;-69
2023/09/03 05:29:03;;;;;;;;;7.75;4.75;;;;;;;;5056871;28;45482;-69
2023/09/03 05:31:30;;;;;;;;;4.75;4.75;;;;;;;;5063324;28;45711;-70
2023/09/03 05:33:56;;;;;;;;;6.50;4.00;;;;;;;;5064911;28;45920;-68
2023/09/03 05:36:21;;;;;;;;;7.00;5.75;;;;;;;;5064367;28;45417;-70
2023/09/03 05:38:46;;;;;;;;;5.00;5.00;;;;;;;;5058020;27;46133;-70
2023/09/03 05:41:11;;;;;;;;;4.25;4.25;;;;;;;;5064531;28;45401;-70
2023/09/03 05:43:37;;;;;;;;;4.25;4.25;;;;;;;;5056140;28;45544;-72
2023/09/03 05:46:03;;;;;;;;;5.00;5.00;;;;;;;;5062224;27;46112;-70
2023/09/03 05:48:29;;;;;;;;;6.00;4.50;;;;;;;;5057009;28;45750;-69
2023/09/03 05:51:03;;;;;;;;;5.00;5.00;;;;;;;;5063846;27;45747;-69
2023/09/03 05:53:32;;;;;;;;;6.75;5.00;;;;;;;;5058363;28;45597;-69
2023/09/03 05:56:07;;;;;;;;;5.50;5.00;;;;;;;;5054980;28;45466;-72
2023/09/03 05:58:33;;;;;;;;;6.00;4.50;;;;;;;;5066386;27;46229;-71
2023/09/03 06:00:58;;;;;;;;;5.00;4.50;;;;;;;;5059952;28;45469;-71
2023/09/03 06:03:24;;;;;;;;;5.25;5.25;;;;;;;;5058302;27;45886;-71
2023/09/03 06:05:49;;;;;;;;;4.00;4.00;;;;;;;;5063836;28;45557;-71
2023/09/03 06:08:14;;;;;;;;;2.50;2.50;;;;;;;;5052883;28;47050;-71
2023/09/03 06:10:40;;;;;;;;;5.25;5.25;;;;;;;;5066976;28;45663;-72
2023/09/03 06:13:06;;;;;;;;;4.00;4.00;;;;;;;;5061714;27;45653;-71
2023/09/03 06:15:31;;;;;;;;;3.75;3.75;;;;;;;;5063623;28;45780;-71
2023/09/03 06:17:57;;;;;;;;;5.75;3.50;;;;;;;;5063472;27;45434;-72
2023/09/03 06:20:22;;;;;;;;;6.25;5.25;;;;;;;;5064409;28;45798;-71
2023/09/03 06:22:47;;;;;;;;;4.50;4.00;;;;;;;;5056157;28;45742;-71
2023/09/03 06:25:12;;;;;;;;;8.00;4.75;;;;;;;;5067818;27;45574;-68
2023/09/03 06:27:38;;;;;;;;;6.75;5.75;;;;;;;;5062997;28;45620;-68
2023/09/03 06:30:04;;;;;;;;;2.00;2.00;;;;;;;;5060355;27;46012;-69
2023/09/03 06:32:30;;;;;;;;;4.00;4.00;;;;;;;;5071857;28;45911;-69
2023/09/03 06:34:55;;;;;;;;;5.75;5.25;;;;;;;;5059172;27;45453;-68
2023/09/03 06:37:21;;;;;;;;;3.50;3.50;;;;;;;;5064860;28;45351;-69
2023/09/03 06:39:46;;;;;;;;;5.00;3.25;;;;;;;;5058484;28;45582;-70
2023/09/03 06:42:11;;;;;;;;;6.00;3.50;;;;;;;;5063530;28;45704;-68
2023/09/03 06:44:36;;;;;;;;;6.00;4.75;;;;;;;;5063621;27;45915;-67
2023/09/03 06:47:02;;;;;;;;;7.00;6.00;;;;;;;;5065645;27;45920;-70
2023/09/03 06:49:27;;;;;;;;;7.25;6.50;;;;;;;;5058572;28;45848;-72
2023/09/03 06:51:52;;;;;;;;;5.25;5.25;;;;;;;;5057877;28;46119;-69
2023/09/03 06:54:18;;;;;;;;;4.00;4.00;;;;;;;;5070755;28;45849;-71
2023/09/03 06:56:43;;;;;;;;;5.50;4.50;;;;;;;;5067031;28;46485;-69
2023/09/03 06:59:09;;;;;;;;;9.75;7.25;;;;;;;;5088542;22;45937;-85
2023/09/03 07:01:35;;;;;;;;;6.25;5.75;;;;;;;;5069530;28;45313;-85
2023/09/03 07:04:01;;;;;;;;;12.75;12.75;;;;;;;;5070479;27;45406;-83
2023/09/03 07:06:26;;;;;;;;;5.75;5.75;;;;;;;;5069573;27;45498;-86
2023/09/03 07:08:58;;;;;;;;;5.25;5.25;;;;;;;;5074132;27;45732;-87
2023/09/03 07:11:28;;;;;;;;;5.00;4.00;;;;;;;;5062559;28;45345;-86
2023/09/03 07:13:55;;;;;;;;;4.00;4.00;;;;;;;;5076579;28;45954;-86
2023/09/03 07:16:22;;;;;;;;;4.75;4.00;;;;;;;;5068014;28;48371;-86
2023/09/03 07:18:48;;;;;;;;;4.25;4.25;;;;;;;;5071616;28;45587;-84
2023/09/03 07:21:13;;;;;;;;;2.75;2.75;;;;;;;;5078139;28;45458;-88
2023/09/03 07:23:39;;;;;;;;;4.00;4.00;;;;;;;;5075120;28;45151;-83
2023/09/03 07:26:05;;;;;;;;;4.75;4.75;;;;;;;;5076149;28;46211;-80
2023/09/03 07:28:31;;;;;;;;;5.00;3.00;;;;;;;;5074132;27;45472;-85
2023/09/03 07:30:57;;;;;;;;;3.00;3.00;;;;;;;;5078315;28;45462;-88
2023/09/03 07:33:23;;;;;;;;;4.25;4.25;;;;;;;;5078393;28;45915;-84
2023/09/03 07:35:48;;;;;;;;;5.25;5.25;;;;;;;;5077183;28;46877;-84
2023/09/03 07:38:15;;;;;;;;;4.00;4.00;;;;;;;;5077784;27;45499;-86
2023/09/03 07:40:40;;;;;;;;;3.00;3.00;;;;;;;;5074994;28;45897;-87
2023/09/03 07:43:27;;;;;;;;;5.00;3.00;;;;;;;;5075195;27;46808;-83
2023/09/03 07:45:53;;;;;;;;;4.00;4.00;;;;;;;;5075128;28;45912;-86
2023/09/03 07:48:18;;;;;;;;;1.00;1.00;;;;;;;;5080383;27;45614;-85
2023/09/03 07:50:44;;;;;;;;;3.00;3.00;;;;;;;;5074675;28;46687;-81
2023/09/03 07:53:09;;;;;;;;;3.75;3.25;;;;;;;;5081088;28;46190;-87
2023/09/03 07:55:35;;;;;;;;;4.00;3.00;;;;;;;;5079176;27;45509;-84
2023/09/03 07:58:01;;;;;;;;;3.00;3.00;;;;;;;;5074918;27;45500;-86
2023/09/03 08:00:26;;;;;;;;;2.00;2.00;;;;;;;;5075258;27;45614;-86
2023/09/03 08:02:51;;;;;;;;;32.00;26.75;;;;;;;;5077962;28;46124;-86
2023/09/03 08:05:17;;;;;;;;;3.75;3.75;;;;;;;;5076906;27;45687;-84
2023/09/03 08:07:42;;;;;;;;;3.50;3.00;;;;;;;;5070397;28;45446;-85
2023/09/03 08:10:08;;;;;;;;;3.50;3.50;;;;;;;;5084186;27;45609;-85
2023/09/03 08:12:33;;;;;;;;;7.50;3.50;;;;;;;;5082303;28;46585;-88
2023/09/03 08:14:59;;;;;;;;;3.00;3.00;;;;;;;;5082297;28;46933;-86
2023/09/03 08:17:26;;;;;;;;;3.00;3.00;;;;;;;;5083571;27;45052;-86
2023/09/03 08:19:51;;;;;;;;;4.00;2.50;;;;;;;;5081916;27;45785;-85
2023/09/03 08:22:17;;;;;;;;;3.00;3.00;;;;;;;;5087148;27;45525;-81
2023/09/03 08:24:42;;;;;;;;;4.25;3.25;;;;;;;;5090583;28;45166;-82
2023/09/03 08:27:08;;;;;;;;;2.50;2.50;;;;;;;;5091855;27;45460;-81
2023/09/03 08:29:33;;;;;;;;;3.25;2.75;;;;;;;;5079824;28;45574;-76
2023/09/03 08:31:59;;;;;;;;;8.50;8.50;;;;;;;;5087535;28;45898;-82
2023/09/03 08:34:24;;;;;;;;;2.75;2.75;;;;;;;;5072286;28;47913;-81
2023/09/03 08:36:50;;;;;;;;;3.00;3.00;;;;;;;;5076016;28;45414;-86
2023/09/03 08:39:15;;;;;;;;;3.00;3.00;;;;;;;;5077661;28;45445;-90
2023/09/03 08:41:41;;;;;;;;;2.50;2.50;;;;;;;;5065523;28;45880;-86
2023/09/03 08:44:13;;;;;;;;;3.75;3.00;;;;;;;;5073970;28;45824;-81
2023/09/03 08:46:42;;;;;;;;;3.25;3.00;;;;;;;;5073251;27;45489;-87
2023/09/03 08:49:07;;;;;;;;;6.25;5.75;;;;;;;;5081976;28;44807;-87
2023/09/03 08:51:33;;;;;;;;;4.50;3.75;;;;;;;;5078093;27;45616;-82
2023/09/03 08:54:01;;;;;;;;;2.50;2.25;;;;;;;;5084690;28;45701;-86
2023/09/03 08:56:27;;;;;;;;;2.00;2.00;;;;;;;;5071491;28;45524;-81
2023/09/03 08:58:55;;;;;;;;;5.00;2.25;;;;;;;;5065654;28;46026;-83
2023/09/03 09:01:21;;;;;;;;;1.00;1.00;;;;;;;;5080152;28;45516;-81
2023/09/03 09:03:50;;;;;;;;;1.00;1.00;;;;;;;;5074829;28;47872;-85
2023/09/03 09:06:16;;;;;;;;;1.20;1.20;;;;;;;;5079496;28;45351;-87
2023/09/03 09:08:46;;;;;;;;;3.50;2.00;;;;;;;;5067323;27;45617;-88
2023/09/03 09:11:14;;;;;;;;;3.50;3.50;;;;;;;;5075882;28;45936;-83
2023/09/03 09:13:41;;;;;;;;;2.50;2.50;;;;;;;;5075789;27;45536;-83
2023/09/03 09:16:07;;;;;;;;;3.80;3.80;;;;;;;;5071797;28;45467;-86
2023/09/03 09:18:35;;;;;;;;;5.75;5.00;;;;;;;;5079643;27;45124;-86
2023/09/03 09:21:01;;;;;;;;;4.25;3.25;;;;;;;;5071453;27;45520;-85
2023/09/03 09:23:27;;;;;;;;;1.00;1.00;;;;;;;;5075565;27;46293;-86
2023/09/03 09:25:56;;;;;;;;;1.50;1.50;;;;;;;;5075049;28;45379;-88
2023/09/03 09:28:21;;;;;;;;;3.00;2.00;;;;;;;;5076031;28;45351;-86
2023/09/03 09:30:57;;;;;;;;;2.00;2.00;;;;;;;;5077523;28;45603;-87
2023/09/03 09:33:23;;;;;;;;;2.00;2.00;;;;;;;;5079273;28;46884;-87
2023/09/03 09:35:48;;;;;;;;;2.00;2.00;;;;;;;;5072011;28;45773;-78
2023/09/03 09:38:14;;;;;;;;;2.00;2.00;;;;;;;;5061331;28;45517;-82
2023/09/03 09:40:40;;;;;;;;;3.25;2.00;;;;;;;;5061682;28;45512;-81
2023/09/03 09:43:09;;;;;;;;;5.00;3.00;;;;;;;;5060614;28;45803;-80
2023/09/03 09:45:47;;;;;;;;;4.00;4.00;;;;;;;;5065577;28;45511;-82
2023/09/03 09:48:17;;;;;;;;;2.00;2.00;;;;;;;;5063534;28;46193;-84
2023/09/03 09:50:44;;;;;;;;;2.00;2.00;;;;;;;;5065905;27;46784;-85
2023/09/03 09:53:21;;;;;;;;;1.80;1.80;;;;;;;;5068124;28;45752;-84
2023/09/03 09:56:36;;;;;;;;;2.00;2.00;;;;;;;;5072094;28;45450;-79
2023/09/03 09:59:24;;;;;;;;;2.75;2.75;;;;;;;;5083750;27;45868;-87
2023/09/03 10:05:11;;;;;;;;;3.20;2.20;;;;;;;;5081875;28;45414;-87
2023/09/03 10:07:38;;;;;;;;;5.20;5.20;;;;;;;;5078623;28;45536;-86
2023/09/03 10:10:05;;;;;;;;;2.00;2.00;;;;;;;;5075455;28;45564;-85
2023/09/03 10:12:31;;;;;;;;;2.50;2.50;;;;;;;;5079309;28;45993;-87
2023/09/03 10:14:59;;;;;;;;;2.75;2.75;;;;;;;;5083577;28;46847;-83
2023/09/03 10:18:02;;;;;;;;;2.80;2.80;;;;;;;;5072808;28;45729;-86
2023/09/03 10:20:32;;;;;;;;;1.00;1.00;;;;;;;;5076410;28;45756;-84
2023/09/03 10:23:05;;;;;;;;;2.50;2.50;;;;;;;;5074788;27;45587;-85
2023/09/03 10:25:34;;;;;;;;;3.50;3.50;;;;;;;;5080177;28;47258;-86
2023/09/03 10:28:04;;;;;;;;;4.20;2.80;;;;;;;;5086530;28;44836;-86
2023/09/03 10:30:39;;;;;;;;;2.80;2.80;;;;;;;;5076182;27;45503;-83
2023/09/03 10:33:07;;;;;;;;;2.25;2.25;;;;;;;;5078576;28;45876;-83
2023/09/03 10:35:36;;;;;;;;;4.00;4.00;;;;;;;;5085130;28;45544;-86
2023/09/03 10:38:05;;;;;;;;;3.60;3.60;;;;;;;;5090051;27;44816;-86
2023/09/03 10:40:32;;;;;;;;;4.00;4.00;;;;;;;;5086656;28;45107;-87
2023/09/03 10:43:22;;;;;;;;;3.75;2.75;;;;;;;;5083415;28;45979;-88
2023/09/03 10:46:02;;;;;;;;;4.00;4.00;;;;;;;;5073535;28;46850;-84
2023/09/03 10:48:37;;;;;;;;;3.20;3.20;;;;;;;;5086224;27;45263;-88
2023/09/03 10:51:03;;;;;;;;;5.00;5.00;;;;;;;;5080364;28;45478;-87
2023/09/03 10:53:46;;;;;;;;;4.75;3.75;;;;;;;;5082380;28;45400;-89
2023/09/03 10:56:13;;;;;;;;;2.40;2.40;;;;;;;;5082131;28;45270;-87
2023/09/03 10:58:55;;;;;;;;;3.00;3.00;;;;;;;;5061145;28;45837;-86
2023/09/03 11:01:31;;;;;;;;;4.00;3.00;;;;;;;;5070845;28;45455;-84
2023/09/03 11:04:00;;;;;;;;;3.25;3.25;;;;;;;;5070529;28;46732;-84
2023/09/03 11:06:32;;;;;;;;;2.75;2.00;;;;;;;;5068792;28;45708;-85
2023/09/03 11:09:01;;;;;;;;;4.00;4.00;;;;;;;;5078239;28;45524;-84
2023/09/03 11:11:28;;;;;;;;;2.75;2.75;;;;;;;;5076775;28;45782;-83
2023/09/03 11:13:54;;;;;;;;;4.25;3.25;;;;;;;;5072690;28;46559;-84
2023/09/03 11:16:31;;;;;;;;;1.50;1.50;;;;;;;;5079199;27;45545;-87
2023/09/03 11:18:56;;;;;;;;;2.60;2.60;;;;;;;;5093545;27;45835;-83
2023/09/03 11:21:25;;;;;;;;;4.00;4.00;;;;;;;;5075481;27;45864;-86
2023/09/03 11:24:00;;;;;;;;;3.00;3.00;;;;;;;;5073826;28;45940;-86
2023/09/03 11:26:25;;;;;;;;;3.00;3.00;;;;;;;;5086149;28;46374;-82
2023/09/03 11:28:51;;;;;;;;;3.00;3.00;;;;;;;;5088798;28;45449;-84
2023/09/03 11:31:16;;;;;;;;;3.00;3.00;;;;;;;;5083312;27;45862;-83
2023/09/03 11:33:55;;;;;;;;;5.00;5.00;;;;;;;;5074929;28;45730;-86
2023/09/03 11:36:21;;;;;;;;;5.00;4.25;;;;;;;;5089464;27;45489;-84
2023/09/03 11:38:49;;;;;;;;;8.40;5.60;;;;;;;;5088125;28;45345;-86
2023/09/03 11:41:19;;;;;;;;;4.00;3.50;;;;;;;;5086265;28;44884;-86
2023/09/03 11:43:44;;;;;;;;;4.25;4.25;;;;;;;;5084590;28;47084;-81
2023/09/03 11:46:12;;;;;;;;;4.00;4.00;;;;;;;;5081188;28;47150;-81
2023/09/03 11:48:39;;;;;;;;;4.00;4.00;;;;;;;;5078898;28;45600;-87
2023/09/03 11:51:04;;;;;;;;;4.50;4.50;;;;;;;;5081699;27;45454;-82
2023/09/03 11:53:40;;;;;;;;;4.50;4.50;;;;;;;;5084642;28;45516;-81
2023/09/03 11:56:30;;;;;;;;;5.50;4.50;;;;;;;;5086255;27;45538;-85
2023/09/03 11:58:59;;;;;;;;;5.00;5.00;;;;;;;;5077565;28;45454;-82
2023/09/03 12:01:33;;;;;;;;;4.50;4.50;;;;;;;;5080966;27;45454;-86
2023/09/03 12:04:13;;;;;;;;;4.50;3.00;;;;;;;;5085711;28;45523;-84
2023/09/03 12:06:44;;;;;;;;;6.00;4.75;;;;;;;;5087354;28;45427;-84
2023/09/03 12:09:10;;;;;;;;;5.25;4.50;;;;;;;;5090545;28;44818;-84
2023/09/03 12:11:44;;;;;;;;;3.00;3.00;;;;;;;;5077067;28;45457;-82
2023/09/03 12:14:13;;;;;;;;;5.50;4.75;;;;;;;;5097511;27;46143;-82
2023/09/03 12:16:47;;;;;;;;;3.50;3.50;;;;;;;;5078206;28;47848;-84
2023/09/03 12:19:12;;;;;;;;;5.50;5.50;;;;;;;;5086460;28;45354;-85
2023/09/03 12:21:38;;;;;;;;;4.00;4.00;;;;;;;;5116631;27;44743;-83
2023/09/03 12:24:04;;;;;;;;;6.00;6.00;;;;;;;;5078621;28;45585;-84
2023/09/03 12:26:30;;;;;;;;;6.75;5.75;;;;;;;;5087598;28;45409;-84
2023/09/03 12:28:58;;;;;;;;;3.00;3.00;;;;;;;;5079548;27;44941;-85
2023/09/03 12:31:39;;;;;;;;;4.00;3.50;;;;;;;;5084007;28;45506;-85
2023/09/03 12:34:08;;;;;;;;;7.50;4.00;;;;;;;;5089137;28;45826;-87
2023/09/03 12:36:33;;;;;;;;;6.50;4.25;;;;;;;;5092694;28;45347;-86
2023/09/03 12:39:00;;;;;;;;;3.75;3.75;;;;;;;;5095573;27;45745;-87
2023/09/03 12:41:26;;;;;;;;;4.25;4.25;;;;;;;;5089084;28;44850;-87
2023/09/03 12:43:52;;;;;;;;;3.50;3.50;;;;;;;;5089274;28;45283;-89
2023/09/03 12:46:17;;;;;;;;;3.50;3.50;;;;;;;;5089921;28;46828;-86
2023/09/03 12:48:46;;;;;;;;;5.00;5.00;;;;;;;;5088744;28;45338;-87
2023/09/03 12:51:16;;;;;;;;;3.25;3.00;;;;;;;;5090750;27;46637;-86
2023/09/03 12:53:44;;;;;;;;;3.00;3.00;;;;;;;;5087983;27;45707;-87
2023/09/03 12:59:42;;;;;;;;;;;;;;;;;;;;;
2023/09/03 13:02:20;;;;;;;;;5.25;5.00;;;;;;;;5012549;28;67539;-84
2023/09/03 13:05:21;;;;;;;;;;;;;;;;;;;;;
2023/09/03 13:07:48;;;;;;;;;4.00;4.00;;;;;;;;5015720;28;74260;-86
2023/09/03 13:10:24;;;;;;;;;3.75;2.75;;;;;;;;5035604;28;45659;-86
2023/09/03 13:13:18;;;;;;;;;4.00;3.00;;;;;;;;5037604;28;45400;-86
2023/09/03 13:19:40;;;;;;;;;3.25;3.25;;;;;;;;5009804;28;46026;-85
2023/09/03 13:22:30;;;;;;;;;3.80;3.80;;;;;;;;5070895;28;45949;-86
2023/09/03 13:25:41;;;;;;;;;;;;;;;;;;;;;
2023/09/03 13:28:32;;;;;;;;;;;;;;;;;;;;;
2023/09/03 13:31:21;;;;;;;;;;;;;;;;;;;;;
2023/09/03 13:33:47;;;;;;;;;3.00;3.00;;;;;;;;5003609;28;72407;-84
2023/09/03 13:36:17;;;;;;;;;5.00;4.00;;;;;;;;5010849;28;45439;-85
2023/09/03 13:39:14;;;;;;;;;3.00;3.00;;;;;;;;5012160;28;46276;-87
2023/09/03 13:42:18;;;;;;;;;;;;;;;;;;;;;
2023/09/03 13:48:08;;;;;;;;;3.00;3.00;;;;;;;;4972343;28;45394;-84
2023/09/03 13:53:56;;;;;;;;;;;;;;;;;;;;;
2023/09/03 13:59:27;;;;;;;;;2.25;2.25;;;;;;;;5008496;22;44917;-71
2023/09/03 14:01:53;;;;;;;;;15.75;13.00;;;;;;;;5091258;27;45568;-69
2023/09/03 14:04:21;;;;;;;;;3.00;3.00;;;;;;;;5085384;27;45876;-69
2023/09/03 14:06:47;;;;;;;;;2.00;2.00;;;;;;;;5093334;27;45453;-71
2023/09/03 14:09:12;;;;;;;;;3.00;3.00;;;;;;;;5091218;27;46348;-69
2023/09/03 14:11:38;;;;;;;;;2.00;2.00;;;;;;;;5087493;27;45816;-67
2023/09/03 14:14:06;;;;;;;;;0.00;0.00;;;;;;;;5077009;27;47440;-68
2023/09/03 14:16:31;;;;;;;;;3.40;3.00;;;;;;;;5081930;27;45619;-69
2023/09/03 14:18:56;;;;;;;;;3.00;3.00;;;;;;;;5076175;27;45592;-69
2023/09/03 14:21:22;;;;;;;;;4.00;4.00;;;;;;;;5083946;27;45282;-71
2023/09/03 14:23:47;;;;;;;;;3.75;3.75;;;;;;;;5089144;27;47023;-69
2023/09/03 14:26:15;;;;;;;;;4.00;3.25;;;;;;;;5090439;27;45856;-67
2023/09/03 14:28:59;;;;;;;;;6.00;3.00;;;;;;;;5082310;27;45333;-69
2023/09/03 14:31:24;;;;;;;;;2.00;2.00;;;;;;;;5090987;27;45410;-69
2023/09/03 14:33:49;;;;;;;;;3.00;3.00;;;;;;;;5089135;27;46137;-68
2023/09/03 14:36:21;;;;;;;;;3.00;3.00;;;;;;;;5096490;27;45864;-69
2023/09/03 14:38:46;;;;;;;;;3.75;1.75;;;;;;;;5089754;27;45327;-69
2023/09/03 14:41:11;;;;;;;;;3.25;3.25;;;;;;;;5092156;27;45415;-69
2023/09/03 14:43:42;;;;;;;;;3.00;2.00;;;;;;;;5095460;27;45652;-69
2023/09/03 14:46:14;;;;;;;;;4.20;3.00;;;;;;;;5092915;27;45904;-69
2023/09/03 14:48:50;;;;;;;;;2.25;2.25;;;;;;;;5089961;27;45815;-70
2023/09/03 14:51:16;;;;;;;;;1.25;1.25;;;;;;;;5085309;27;45543;-68
2023/09/03 14:53:41;;;;;;;;;4.00;3.00;;;;;;;;5084415;27;45551;-68
2023/09/03 14:56:07;;;;;;;;;2.00;2.00;;;;;;;;5083047;27;45453;-68
2023/09/03 14:58:35;;;;;;;;;3.00;1.75;;;;;;;;5077394;27;45523;-67
2023/09/03 15:01:13;;;;;;;;;5.00;3.50;;;;;;;;5079347;27;45528;-68
2023/09/03 15:03:41;;;;;;;;;2.50;2.25;;;;;;;;5096221;27;46948;-67
2023/09/03 15:06:06;;;;;;;;;3.00;3.00;;;;;;;;5094505;27;45399;-68
2023/09/03 15:08:35;;;;;;;;;2.25;2.25;;;;;;;;5092214;27;45424;-68
2023/09/03 15:11:09;;;;;;;;;2.00;2.00;;;;;;;;5091870;27;47242;-67
2023/09/03 15:13:35;;;;;;;;;7.75;6.50;;;;;;;;5087625;27;45854;-68
2023/09/03 15:16:01;;;;;;;;;2.00;2.00;;;;;;;;5083392;27;45932;-69
2023/09/03 15:18:29;;;;;;;;;4.00;3.00;;;;;;;;5090140;27;45938;-69
2023/09/03 15:20:55;;;;;;;;;3.00;2.00;;;;;;;;5082737;27;45814;-71